KFFT

Capital City Airport

Frankfort, Kentucky, USA
METAR KFFT 210353Z AUTO 17005KT 10SM CLR 25/22 A2988 RMK AO2 SLP109 T02500222
Observed Flight Rules
Aug-21 @ 03:53 UTC (18 minutes ago) Visual Flight Rules
Wind Visibility Clouds
170° at 5 knots 10 miles
  • Clear skies
Temperatures Readings
Current 25°C / 77°F
Dewpoint 22°C / 72°F
Humidity 83%
Altimeter 29.88" Hg
Pressure 1010.9 hPa
Elevation 236
METAR KFFT 210353Z AUTO 17005KT 10SM CLR 25/22 A2988 RMK AO2 SLP109 T02500222
Observed Flight Rules
Aug-21 @ 03:53 UTC
(18 minutes ago)
VFR
Wind Visibility
170° at 5 knots 10 miles
Clouds
  • Clear skies
Temperature Dewpoint
25°C / 77°F 22°C / 72°F
Humidity Altimeter Pressure
83% 29.88" Hg 1010.9 hPa